createdAt,value
2023-04-09T00:00:17.763Z,44.63
2023-04-09T00:01:17.755Z,43.34
2023-04-09T00:02:17.737Z,44.63
2023-04-09T00:03:17.788Z,45.12
2023-04-09T00:04:17.775Z,46.57
2023-04-09T00:05:18.717Z,46.73
2023-04-09T00:06:18.654Z,47.37
2023-04-09T00:07:17.702Z,41.25
2023-04-09T00:08:17.712Z,48.98
2023-04-09T00:09:17.686Z,49.79
2023-04-09T00:10:17.687Z,48.50
2023-04-09T00:11:18.640Z,47.05
2023-04-09T00:12:17.668Z,42.54
2023-04-09T00:13:25.345Z,43.34
2023-04-09T00:14:19.674Z,51.72
2023-04-09T00:15:27.746Z,53.98
2023-04-09T00:16:19.660Z,49.15
2023-04-09T00:17:17.629Z,46.57
2023-04-09T00:18:17.618Z,45.44
2023-04-09T00:19:17.609Z,44.47
2023-04-09T00:20:17.617Z,51.88
2023-04-09T00:21:17.583Z,50.92
2023-04-09T00:24:18.058Z,45.44
2023-04-09T00:25:18.078Z,49.31
2023-04-09T00:26:19.144Z,51.72
2023-04-09T00:27:20.135Z,53.33
2023-04-09T00:28:19.114Z,49.31
2023-04-09T00:29:19.108Z,50.60
2023-04-09T00:30:19.109Z,48.82
2023-04-09T00:31:20.722Z,51.40
2023-04-09T00:32:20.090Z,47.21
2023-04-09T00:33:19.074Z,49.15
2023-04-09T00:34:19.066Z,52.37
2023-04-09T00:35:19.055Z,46.89
2023-04-09T00:36:19.062Z,48.98
2023-04-09T00:37:19.053Z,50.60
2023-04-09T00:38:19.050Z,41.57
2023-04-09T00:39:19.026Z,44.47
2023-04-09T00:40:19.041Z,52.85
2023-04-09T00:41:19.041Z,37.87
2023-04-09T00:42:18.998Z,45.44
2023-04-09T00:43:19.007Z,39.80
2023-04-09T00:44:18.994Z,42.06
2023-04-09T00:45:19.897Z,43.51
2023-04-09T00:46:19.026Z,41.73
2023-04-09T00:47:18.995Z,40.28
2023-04-09T00:48:18.964Z,44.15
2023-04-09T00:49:18.954Z,39.16
2023-04-09T00:50:18.945Z,38.83
2023-04-09T00:51:18.969Z,42.86
2023-04-09T00:52:18.930Z,40.93
2023-04-09T00:53:18.918Z,39.48
2023-04-09T00:54:18.916Z,43.99
2023-04-09T00:55:18.924Z,48.66
2023-04-09T00:56:18.920Z,42.70
2023-04-09T00:57:18.884Z,44.96
2023-04-09T00:58:18.891Z,47.86
2023-04-09T00:59:18.904Z,52.37
2023-04-09T01:00:18.861Z,48.18
2023-04-09T01:01:18.884Z,45.28
2023-04-09T01:02:18.913Z,43.83
2023-04-09T01:03:18.953Z,40.77
2023-04-09T01:04:18.834Z,45.44
2023-04-09T01:05:18.813Z,46.73
2023-04-09T01:06:18.822Z,50.60
2023-04-09T01:07:18.792Z,50.27
2023-04-09T01:08:18.804Z,50.76
2023-04-09T01:09:18.790Z,48.34
2023-04-09T01:10:18.789Z,49.47
2023-04-09T01:11:18.769Z,47.86
2023-04-09T01:12:18.749Z,51.40
2023-04-09T01:13:18.752Z,51.56
2023-04-09T01:14:18.730Z,40.93
2023-04-09T01:15:18.741Z,41.57
2023-04-09T01:16:18.756Z,39.32
2023-04-09T01:17:18.717Z,41.41
2023-04-09T01:18:18.714Z,39.32
2023-04-09T01:19:18.691Z,38.83
2023-04-09T01:20:18.704Z,44.47
2023-04-09T01:21:18.698Z,43.67
2023-04-09T01:22:18.672Z,44.15
2023-04-09T01:23:18.693Z,50.76
2023-04-09T01:24:18.664Z,50.60
2023-04-09T01:25:18.653Z,48.18
2023-04-09T01:26:18.644Z,48.98
2023-04-09T01:27:18.637Z,51.40
2023-04-09T01:28:18.645Z,44.63
2023-04-09T01:29:18.612Z,51.56
2023-04-09T01:30:18.603Z,43.99
2023-04-09T01:31:18.616Z,43.67
2023-04-09T01:32:18.612Z,43.18
2023-04-09T01:33:18.571Z,42.70
2023-04-09T01:34:18.586Z,41.57
2023-04-09T01:35:19.446Z,53.98
2023-04-09T01:36:18.556Z,55.91
2023-04-09T01:37:18.561Z,51.56
2023-04-09T01:38:18.534Z,48.50
2023-04-09T01:39:18.526Z,45.60
2023-04-09T01:40:18.514Z,47.53
2023-04-09T01:41:18.524Z,49.47
2023-04-09T01:42:18.515Z,41.89
2023-04-09T01:43:18.500Z,40.12
2023-04-09T01:44:18.497Z,49.47
2023-04-09T01:45:18.489Z,49.31
2023-04-09T01:46:18.507Z,41.25
2023-04-09T01:47:18.471Z,41.25
2023-04-09T01:48:18.483Z,48.66
2023-04-09T01:49:18.472Z,46.73
2023-04-09T01:50:18.452Z,40.12
2023-04-09T01:51:18.447Z,48.66
2023-04-09T01:52:18.430Z,44.96
2023-04-09T01:53:18.451Z,50.11
2023-04-09T01:54:18.419Z,41.41
2023-04-09T01:55:18.419Z,44.15
2023-04-09T01:56:18.402Z,44.47
2023-04-09T01:57:18.438Z,49.95
2023-04-09T01:58:18.391Z,43.34
2023-04-09T01:59:18.369Z,43.51
2023-04-09T02:00:18.360Z,53.50
2023-04-09T02:01:19.391Z,38.99
2023-04-09T02:02:18.500Z,50.11
2023-04-09T02:03:18.448Z,42.54
2023-04-09T02:04:18.327Z,45.92
2023-04-09T02:05:18.331Z,44.15
2023-04-09T02:06:18.334Z,53.01
2023-04-09T02:07:18.315Z,56.24
2023-04-09T02:08:18.320Z,55.59
2023-04-09T02:09:18.286Z,49.47
2023-04-09T02:10:18.274Z,49.79
2023-04-09T02:11:18.279Z,43.83
2023-04-09T02:12:18.280Z,43.99
2023-04-09T02:13:18.267Z,45.76
2023-04-09T02:14:18.960Z,43.99
2023-04-09T02:15:18.246Z,40.61
2023-04-09T02:16:18.326Z,41.09
2023-04-09T02:17:18.238Z,55.27
2023-04-09T02:18:18.233Z,55.27
2023-04-09T02:19:18.218Z,42.86
2023-04-09T02:20:18.203Z,39.16
2023-04-09T02:21:18.198Z,40.12
2023-04-09T02:22:18.184Z,40.12
2023-04-09T02:23:18.278Z,38.83
2023-04-09T02:24:18.173Z,45.44
2023-04-09T02:25:18.162Z,43.51
2023-04-09T02:26:18.167Z,52.69
2023-04-09T02:27:18.166Z,56.56
2023-04-09T02:28:18.155Z,47.53
2023-04-09T02:29:18.124Z,43.18
2023-04-09T02:30:18.114Z,43.83
2023-04-09T02:31:18.149Z,46.41
2023-04-09T02:32:18.128Z,49.47
2023-04-09T02:33:18.112Z,50.76
2023-04-09T02:34:18.091Z,47.05
2023-04-09T02:35:18.073Z,47.70
2023-04-09T02:36:18.064Z,38.67
2023-04-09T02:37:18.075Z,39.80
2023-04-09T02:38:18.056Z,38.51
2023-04-09T02:39:18.162Z,38.83
2023-04-09T02:40:18.044Z,39.32
2023-04-09T02:41:18.026Z,37.54
2023-04-09T02:42:18.028Z,39.32
2023-04-09T02:43:18.046Z,42.22
2023-04-09T02:44:17.992Z,40.93
2023-04-09T02:45:17.994Z,38.19
2023-04-09T02:46:18.009Z,40.61
2023-04-09T02:47:18.023Z,43.02
2023-04-09T02:48:17.969Z,45.28
2023-04-09T02:49:17.961Z,50.27
2023-04-09T02:50:17.969Z,53.01
2023-04-09T02:51:17.958Z,50.27
2023-04-09T02:52:17.946Z,49.79
2023-04-09T02:53:17.947Z,47.37
2023-04-09T02:54:17.937Z,42.22
2023-04-09T02:55:17.926Z,43.67
2023-04-09T02:56:17.906Z,38.99
2023-04-09T02:57:17.921Z,53.17
2023-04-09T02:58:17.904Z,39.64
2023-04-09T02:59:17.885Z,39.80
2023-04-09T03:00:17.885Z,40.44
2023-04-09T03:01:17.879Z,44.63
2023-04-09T03:02:18.040Z,44.31
2023-04-09T03:03:17.951Z,44.15
2023-04-09T03:04:17.897Z,42.38
2023-04-09T03:05:17.861Z,41.73
2023-04-09T03:06:17.832Z,43.18
2023-04-09T03:07:17.835Z,44.79
2023-04-09T03:08:17.805Z,48.50
2023-04-09T03:09:17.797Z,49.15
2023-04-09T03:10:17.791Z,40.93
2023-04-09T03:11:17.878Z,44.96
2023-04-09T03:12:17.787Z,45.44
2023-04-09T03:13:17.784Z,46.08
2023-04-09T03:14:17.769Z,46.57
2023-04-09T03:15:18.550Z,43.67
2023-04-09T03:16:17.749Z,46.89
2023-04-09T03:17:17.731Z,48.34
2023-04-09T03:18:17.749Z,46.89
2023-04-09T03:19:17.730Z,50.11
2023-04-09T03:20:17.719Z,42.70
2023-04-09T03:21:17.709Z,46.25
2023-04-09T03:22:17.691Z,41.09
2023-04-09T03:23:17.698Z,45.92
2023-04-09T03:24:17.675Z,45.28
2023-04-09T03:25:17.730Z,41.73
2023-04-09T03:26:17.670Z,42.06
2023-04-09T03:27:17.653Z,50.43
2023-04-09T03:28:17.654Z,44.47
2023-04-09T03:29:17.635Z,43.83
2023-04-09T03:30:17.651Z,47.37
2023-04-09T03:31:17.648Z,47.05
2023-04-09T03:32:18.938Z,49.63
2023-04-09T03:33:18.607Z,55.11
2023-04-09T03:34:17.593Z,45.12
2023-04-09T03:35:17.598Z,49.47
2023-04-09T03:36:17.600Z,48.66
2023-04-09T03:37:17.581Z,55.11
2023-04-09T03:38:17.575Z,48.34
2023-04-09T03:39:17.566Z,50.60
2023-04-09T03:40:17.548Z,50.11
2023-04-09T03:41:17.538Z,48.34
2023-04-09T03:42:17.520Z,49.31
2023-04-09T03:43:18.569Z,45.92
2023-04-09T03:44:17.524Z,47.53
2023-04-09T03:45:17.514Z,46.41
2023-04-09T03:46:17.506Z,42.86
2023-04-09T03:47:17.488Z,51.24
2023-04-09T03:48:17.499Z,46.25
2023-04-09T03:49:17.497Z,45.44
2023-04-09T03:50:17.479Z,46.57
2023-04-09T03:51:17.463Z,43.83
2023-04-09T03:52:17.455Z,42.54
2023-04-09T03:53:18.060Z,45.12
2023-04-09T03:54:17.454Z,57.20
2023-04-09T03:55:17.448Z,41.57
2023-04-09T03:56:17.428Z,42.06
2023-04-09T03:57:17.422Z,42.86
2023-04-09T03:58:17.412Z,46.08
2023-04-09T03:59:18.051Z,42.54
2023-04-09T04:00:17.414Z,42.06
2023-04-09T04:01:17.374Z,41.41
2023-04-09T04:02:17.421Z,42.54
2023-04-09T04:03:17.504Z,45.12
2023-04-09T04:04:17.529Z,45.12
2023-04-09T04:05:17.348Z,43.99
2023-04-09T04:06:17.356Z,47.37
2023-04-09T04:07:17.349Z,41.89
2023-04-09T04:08:17.328Z,43.34
2023-04-09T04:09:17.329Z,45.12
2023-04-09T04:10:17.311Z,46.57
2023-04-09T04:11:17.569Z,43.51
2023-04-09T04:12:17.294Z,46.41
2023-04-09T04:13:17.323Z,43.34
2023-04-09T04:14:17.293Z,44.63
2023-04-09T04:15:17.286Z,43.51
2023-04-09T04:16:17.331Z,43.34
2023-04-09T04:17:17.261Z,47.86
2023-04-09T04:18:17.255Z,47.37
2023-04-09T04:19:17.232Z,41.89
2023-04-09T04:20:17.263Z,40.44
2023-04-09T04:21:17.238Z,45.76
2023-04-09T04:22:17.220Z,48.50
2023-04-09T04:23:17.198Z,39.64
2023-04-09T04:24:18.226Z,40.93
2023-04-09T04:25:17.192Z,39.48
2023-04-09T04:26:17.206Z,37.71
2023-04-09T04:27:17.177Z,41.73
2023-04-09T04:28:17.191Z,38.99
2023-04-09T04:29:17.168Z,39.32
2023-04-09T04:30:17.141Z,38.99
2023-04-09T04:31:18.091Z,39.96
2023-04-09T04:32:17.138Z,40.77
2023-04-09T04:33:17.261Z,41.57
2023-04-09T04:34:17.112Z,40.93
2023-04-09T04:35:17.145Z,40.28
2023-04-09T04:36:17.119Z,43.34
2023-04-09T04:37:17.090Z,48.34
2023-04-09T04:38:17.089Z,42.86
2023-04-09T04:39:17.080Z,43.99
2023-04-09T04:40:17.071Z,40.93
2023-04-09T04:41:17.057Z,41.41
2023-04-09T04:42:17.068Z,48.18
2023-04-09T04:43:17.048Z,45.28
2023-04-09T04:44:17.055Z,43.02
2023-04-09T04:45:17.040Z,43.83
2023-04-09T04:46:17.047Z,42.22
2023-04-09T04:47:17.017Z,46.89
2023-04-09T04:48:17.001Z,50.11
2023-04-09T04:49:16.987Z,43.83
2023-04-09T04:50:16.980Z,45.12
2023-04-09T04:51:16.972Z,44.15
2023-04-09T04:52:17.947Z,46.57
2023-04-09T04:53:17.951Z,41.25
2023-04-09T04:54:16.966Z,40.28
2023-04-09T04:55:16.967Z,45.12
2023-04-09T04:56:16.930Z,40.44
2023-04-09T04:57:16.913Z,40.61
2023-04-09T04:58:16.910Z,43.83
2023-04-09T04:59:16.904Z,43.02
2023-04-09T05:00:16.912Z,41.57
2023-04-09T05:01:16.896Z,43.99
2023-04-09T05:02:17.084Z,43.51
2023-04-09T05:03:16.994Z,44.63
2023-04-09T05:04:16.857Z,40.93
2023-04-09T05:05:16.858Z,41.25
2023-04-09T05:06:16.857Z,41.09
2023-04-09T05:07:16.865Z,43.02
2023-04-09T05:08:16.840Z,41.89
2023-04-09T05:09:16.824Z,40.28
2023-04-09T05:10:16.807Z,40.44
2023-04-09T05:11:16.812Z,44.47
2023-04-09T05:12:16.794Z,49.47
2023-04-09T05:13:16.800Z,52.85
2023-04-09T05:14:16.791Z,48.50
2023-04-09T05:15:16.773Z,47.86
2023-04-09T05:16:16.790Z,52.37
2023-04-09T05:17:16.791Z,46.08
2023-04-09T05:18:16.739Z,46.08
2023-04-09T05:19:16.736Z,47.37
2023-04-09T05:20:16.722Z,47.86
2023-04-09T05:21:16.750Z,44.63
2023-04-09T05:22:16.704Z,49.31
2023-04-09T05:23:16.712Z,44.63
2023-04-09T05:24:16.703Z,44.15
2023-04-09T05:25:16.702Z,43.67
2023-04-09T05:26:16.683Z,45.76
2023-04-09T05:27:16.671Z,44.47
2023-04-09T05:28:16.659Z,45.12
2023-04-09T05:29:16.664Z,44.31
2023-04-09T05:30:16.639Z,46.73
2023-04-09T05:31:16.713Z,45.28
2023-04-09T05:32:16.625Z,52.69
2023-04-09T05:33:16.611Z,45.76
2023-04-09T05:34:16.621Z,44.96
2023-04-09T05:35:16.608Z,51.56
2023-04-09T05:36:16.605Z,41.41
2023-04-09T05:37:16.585Z,45.92
2023-04-09T05:38:16.579Z,48.98
2023-04-09T05:39:16.593Z,45.60
2023-04-09T05:40:16.556Z,47.05
2023-04-09T05:41:16.580Z,51.88
2023-04-09T05:42:16.558Z,52.21
2023-04-09T05:43:16.550Z,46.25
2023-04-09T05:44:16.565Z,45.76
2023-04-09T05:45:16.528Z,45.60
2023-04-09T05:46:16.534Z,45.28
2023-04-09T05:47:16.514Z,49.31
2023-04-09T05:48:16.506Z,49.63
2023-04-09T05:49:16.511Z,46.57
2023-04-09T05:50:16.505Z,50.60
2023-04-09T05:51:16.480Z,44.47
2023-04-09T05:52:16.505Z,43.51
2023-04-09T05:53:16.462Z,44.79
2023-04-09T05:54:16.461Z,50.27
2023-04-09T05:55:16.455Z,49.63
2023-04-09T05:56:16.434Z,43.83
2023-04-09T05:57:16.450Z,45.12
2023-04-09T05:58:16.416Z,41.89
2023-04-09T05:59:16.420Z,42.06
2023-04-09T06:00:17.024Z,43.02
2023-04-09T06:01:16.402Z,46.57
2023-04-09T06:02:16.444Z,40.61
2023-04-09T06:03:16.481Z,43.02
2023-04-09T06:04:16.611Z,44.15
2023-04-09T06:05:16.389Z,53.33
2023-04-09T06:06:16.368Z,45.92
2023-04-09T06:07:16.347Z,45.60
2023-04-09T06:08:16.347Z,43.02
2023-04-09T06:09:16.330Z,47.86
2023-04-09T06:10:16.340Z,48.66
2023-04-09T06:11:16.314Z,50.92
2023-04-09T06:12:16.301Z,51.88
2023-04-09T06:13:16.294Z,49.63
2023-04-09T06:14:16.294Z,45.76
2023-04-09T06:15:16.295Z,48.02
2023-04-09T06:16:16.332Z,53.01
2023-04-09T06:17:16.265Z,54.14
2023-04-09T06:18:16.245Z,51.88
2023-04-09T06:19:16.272Z,52.37
2023-04-09T06:20:16.253Z,50.27
2023-04-09T06:21:16.231Z,54.79
2023-04-09T06:22:16.223Z,53.82
2023-04-09T06:23:16.220Z,55.27
2023-04-09T06:24:16.228Z,52.69
2023-04-09T06:25:16.214Z,53.66
2023-04-09T06:26:16.208Z,54.95
2023-04-09T06:27:16.184Z,52.85
2023-04-09T06:28:16.200Z,53.98
2023-04-09T06:29:16.166Z,54.46
2023-04-09T06:30:16.446Z,53.98
2023-04-09T06:31:16.245Z,53.66
2023-04-09T06:32:16.167Z,52.85
2023-04-09T06:33:16.185Z,51.72
2023-04-09T06:34:16.130Z,51.72
2023-04-09T06:35:16.134Z,52.05
2023-04-09T06:36:17.021Z,52.69
2023-04-09T06:37:16.098Z,52.05
2023-04-09T06:38:16.110Z,51.24
2023-04-09T06:39:16.093Z,50.92
2023-04-09T06:40:16.154Z,51.56
2023-04-09T06:41:16.073Z,51.88
2023-04-09T06:42:16.079Z,51.08
2023-04-09T06:43:16.069Z,50.92
2023-04-09T06:44:16.048Z,53.50
2023-04-09T06:45:16.054Z,52.37
2023-04-09T06:46:16.066Z,51.40
2023-04-09T06:47:16.037Z,48.66
2023-04-09T06:48:16.030Z,50.27
2023-04-09T06:49:16.001Z,52.05
2023-04-09T06:50:15.993Z,50.92
2023-04-09T06:51:16.003Z,49.95
2023-04-09T06:52:15.986Z,49.79
2023-04-09T06:53:15.980Z,53.50
2023-04-09T06:54:15.975Z,53.01
2023-04-09T06:55:15.956Z,50.92
2023-04-09T06:56:15.964Z,49.15
2023-04-09T06:57:15.941Z,47.86
2023-04-09T06:58:15.932Z,50.76
2023-04-09T06:59:15.923Z,52.69
2023-04-09T07:00:15.916Z,47.05
2023-04-09T07:01:15.956Z,45.12
2023-04-09T07:02:15.990Z,50.11
2023-04-09T07:03:15.977Z,47.21
2023-04-09T07:04:16.019Z,45.44
2023-04-09T07:05:15.857Z,52.37
2023-04-09T07:06:15.866Z,63.16
2023-04-09T07:07:15.857Z,52.05
2023-04-09T07:08:15.860Z,50.11
2023-04-09T07:09:15.828Z,51.72
2023-04-09T07:10:15.833Z,50.27
2023-04-09T07:11:15.831Z,50.11
2023-04-09T07:12:15.802Z,53.01
2023-04-09T07:13:15.811Z,55.91
2023-04-09T07:14:15.812Z,52.69
2023-04-09T07:15:15.799Z,52.53
2023-04-09T07:16:15.832Z,54.30
2023-04-09T07:17:15.772Z,51.88
2023-04-09T07:18:15.776Z,52.37
2023-04-09T07:19:15.748Z,55.43
2023-04-09T07:20:15.747Z,51.24
2023-04-09T07:21:15.735Z,55.91
2023-04-09T07:22:15.740Z,51.88
2023-04-09T07:23:15.720Z,53.17
2023-04-09T07:24:15.714Z,51.56
2023-04-09T07:25:15.718Z,52.69
2023-04-09T07:26:15.697Z,51.40
2023-04-09T07:27:15.704Z,47.37
2023-04-09T07:28:15.687Z,47.05
2023-04-09T07:29:15.670Z,50.11
2023-04-09T07:30:15.663Z,47.86
2023-04-09T07:31:15.682Z,50.27
2023-04-09T07:32:15.639Z,50.76
2023-04-09T07:33:15.652Z,55.43
2023-04-09T07:34:15.642Z,52.53
2023-04-09T07:35:15.613Z,50.11
2023-04-09T07:36:15.654Z,50.27
2023-04-09T07:37:15.613Z,48.02
2023-04-09T07:38:15.626Z,51.88
2023-04-09T07:39:16.519Z,54.46
2023-04-09T07:40:15.569Z,57.52
2023-04-09T07:41:15.583Z,47.37
2023-04-09T07:42:15.557Z,49.15
2023-04-09T07:43:15.584Z,50.27
2023-04-09T07:44:15.543Z,53.82
2023-04-09T07:45:15.544Z,48.34
2023-04-09T07:46:15.570Z,49.47
2023-04-09T07:47:16.103Z,57.20
2023-04-09T07:48:15.525Z,49.15
2023-04-09T07:49:15.496Z,49.47
2023-04-09T07:50:15.506Z,48.50
2023-04-09T07:51:15.494Z,50.27
2023-04-09T07:52:15.510Z,56.07
2023-04-09T07:53:15.506Z,53.33
2023-04-09T07:54:15.473Z,54.14
2023-04-09T07:55:16.768Z,52.53
2023-04-09T07:56:15.460Z,57.69
2023-04-09T07:57:15.480Z,55.11
2023-04-09T07:58:15.451Z,57.20
2023-04-09T07:59:15.438Z,52.21
2023-04-09T08:00:15.426Z,55.43
2023-04-09T08:01:15.427Z,48.34
2023-04-09T08:02:15.653Z,49.47
2023-04-09T08:03:15.640Z,53.01
2023-04-09T08:04:15.544Z,46.73
2023-04-09T08:05:15.491Z,46.41
2023-04-09T08:06:15.380Z,48.18
2023-04-09T08:07:15.375Z,47.37
2023-04-09T08:08:15.380Z,52.37
2023-04-09T08:09:15.362Z,53.66
2023-04-09T08:10:15.367Z,51.72
2023-04-09T08:11:15.351Z,52.05
2023-04-09T08:12:15.335Z,52.21
2023-04-09T08:13:15.316Z,52.85
2023-04-09T08:14:15.319Z,52.37
2023-04-09T08:15:15.309Z,53.01
2023-04-09T08:16:15.367Z,51.24
2023-04-09T08:17:15.303Z,56.88
2023-04-09T08:18:15.295Z,53.17
2023-04-09T08:19:15.278Z,53.98
2023-04-09T08:20:15.288Z,52.05
2023-04-09T08:21:15.261Z,54.46
2023-04-09T08:22:15.268Z,58.33
2023-04-09T08:23:15.252Z,59.14
2023-04-09T08:24:15.245Z,57.69
2023-04-09T08:25:15.232Z,53.01
2023-04-09T08:26:15.220Z,51.56
2023-04-09T08:27:15.237Z,53.33
2023-04-09T08:28:15.211Z,51.72
2023-04-09T08:29:15.243Z,55.91
2023-04-09T08:30:17.510Z,54.30
2023-04-09T08:31:15.185Z,53.98
2023-04-09T08:32:15.348Z,53.50
2023-04-09T08:33:15.166Z,56.40
2023-04-09T08:34:15.165Z,53.01
2023-04-09T08:35:15.136Z,58.17
2023-04-09T08:36:15.194Z,56.56
2023-04-09T08:37:15.148Z,52.69
2023-04-09T08:38:15.134Z,57.04
2023-04-09T08:39:15.113Z,56.40
2023-04-09T08:40:15.101Z,55.27
2023-04-09T08:41:15.191Z,56.56
2023-04-09T08:42:15.082Z,57.85
2023-04-09T08:43:15.090Z,57.52
2023-04-09T08:44:15.071Z,49.79
2023-04-09T08:45:15.078Z,56.56
2023-04-09T08:46:15.097Z,54.46
2023-04-09T08:47:15.081Z,57.20
2023-04-09T08:48:15.160Z,55.59
2023-04-09T08:49:15.044Z,54.79
2023-04-09T08:50:15.031Z,55.91
2023-04-09T08:51:15.032Z,55.43
2023-04-09T08:52:15.015Z,53.33
2023-04-09T08:53:14.997Z,52.37
2023-04-09T08:54:15.004Z,54.62
2023-04-09T08:55:14.986Z,54.14
2023-04-09T08:56:14.988Z,52.85
2023-04-09T08:57:14.971Z,54.95
2023-04-09T08:58:14.960Z,55.75
2023-04-09T08:59:14.947Z,56.72
2023-04-09T09:00:14.936Z,55.43
2023-04-09T09:01:14.961Z,57.52
2023-04-09T09:02:15.048Z,54.30
2023-04-09T09:03:15.047Z,56.24
2023-04-09T09:04:14.998Z,51.72
2023-04-09T09:05:14.915Z,56.07
2023-04-09T09:06:14.907Z,56.24
2023-04-09T09:07:14.897Z,57.85
2023-04-09T09:08:14.891Z,54.79
2023-04-09T09:09:14.900Z,53.66
2023-04-09T09:10:14.877Z,55.75
2023-04-09T09:11:14.880Z,58.01
2023-04-09T09:12:14.851Z,56.88
2023-04-09T09:13:14.848Z,52.37
2023-04-09T09:14:14.842Z,54.95
2023-04-09T09:15:14.840Z,55.59
2023-04-09T09:16:14.900Z,55.91
2023-04-09T09:17:14.855Z,54.95
2023-04-09T09:18:14.825Z,54.14
2023-04-09T09:19:14.809Z,53.98
2023-04-09T09:20:14.795Z,54.95
2023-04-09T09:21:14.776Z,53.82
2023-04-09T09:22:14.780Z,51.72
2023-04-09T09:23:14.773Z,58.65
2023-04-09T09:24:15.744Z,56.40
2023-04-09T09:25:14.760Z,56.88
2023-04-09T09:26:14.764Z,49.95
2023-04-09T09:27:14.730Z,51.88
2023-04-09T09:28:14.732Z,55.75
2023-04-09T09:29:14.707Z,52.21
2023-04-09T09:30:14.714Z,56.07
2023-04-09T09:31:14.747Z,58.01
2023-04-09T09:32:16.619Z,56.24
2023-04-09T09:33:14.689Z,56.24
2023-04-09T09:34:14.695Z,53.17
2023-04-09T09:35:14.691Z,56.56
2023-04-09T09:36:14.732Z,58.01
2023-04-09T09:37:14.672Z,48.02
2023-04-09T09:38:14.650Z,54.79
2023-04-09T09:39:14.662Z,53.50
2023-04-09T09:40:14.626Z,56.40
2023-04-09T09:41:14.703Z,54.46
2023-04-09T09:42:14.624Z,55.27
2023-04-09T09:43:14.798Z,57.04
2023-04-09T09:44:15.641Z,54.95
2023-04-09T09:45:14.597Z,54.46
2023-04-09T09:46:14.622Z,55.75
2023-04-09T09:47:14.575Z,55.43
2023-04-09T09:48:14.568Z,52.85
2023-04-09T09:49:14.557Z,54.79
2023-04-09T09:50:14.549Z,53.17
2023-04-09T09:51:14.549Z,53.66
2023-04-09T09:52:14.539Z,52.69
2023-04-09T09:53:14.532Z,54.95
2023-04-09T09:54:14.560Z,54.46
2023-04-09T09:55:14.515Z,53.17
2023-04-09T09:56:14.506Z,51.40
2023-04-09T09:57:14.530Z,48.50
2023-04-09T09:58:14.490Z,54.79
2023-04-09T09:59:14.499Z,56.07
2023-04-09T10:00:14.512Z,49.79
2023-04-09T10:01:14.493Z,54.30
2023-04-09T10:02:14.484Z,55.59
2023-04-09T10:03:14.499Z,54.95
2023-04-09T10:04:14.444Z,48.82
2023-04-09T10:05:14.425Z,53.33
2023-04-09T10:06:14.444Z,55.75
2023-04-09T10:07:14.420Z,56.07
2023-04-09T10:08:14.431Z,54.95
2023-04-09T10:09:14.407Z,53.98
2023-04-09T10:10:14.384Z,57.36
2023-04-09T10:11:14.400Z,51.40
2023-04-09T10:12:14.361Z,56.40
2023-04-09T10:13:14.378Z,57.04
2023-04-09T10:14:14.361Z,55.11
2023-04-09T10:15:14.350Z,52.85
2023-04-09T10:16:14.435Z,54.30
2023-04-09T10:17:14.338Z,54.79
2023-04-09T10:18:14.320Z,55.11
2023-04-09T10:19:14.374Z,55.11
2023-04-09T10:20:14.306Z,56.40
2023-04-09T10:21:14.316Z,51.88
2023-04-09T10:22:14.293Z,59.14
2023-04-09T10:23:14.295Z,56.88
2023-04-09T10:24:14.292Z,59.14
2023-04-09T10:25:14.265Z,56.56
2023-04-09T10:26:14.273Z,56.40
2023-04-09T10:27:16.230Z,55.43
2023-04-09T10:28:15.254Z,54.46
2023-04-09T10:29:14.240Z,59.46
2023-04-09T10:30:14.313Z,57.36
2023-04-09T10:31:14.266Z,55.11
2023-04-09T10:32:14.234Z,54.95
2023-04-09T10:33:14.212Z,57.52
2023-04-09T10:34:14.201Z,55.27
2023-04-09T10:35:14.205Z,58.49
2023-04-09T10:36:14.270Z,54.79
2023-04-09T10:37:14.205Z,57.69
2023-04-09T10:38:14.173Z,54.14
2023-04-09T10:39:14.191Z,50.92
2023-04-09T10:40:15.189Z,54.79
2023-04-09T10:41:14.145Z,55.43
2023-04-09T10:42:14.128Z,56.72
2023-04-09T10:43:15.126Z,59.62
2023-04-09T10:44:14.138Z,56.07
2023-04-09T10:45:14.303Z,53.82
2023-04-09T10:46:14.132Z,54.95
2023-04-09T10:47:14.101Z,56.56
2023-04-09T10:48:14.079Z,58.17
2023-04-09T10:49:14.083Z,53.98
2023-04-09T10:50:14.080Z,57.20
2023-04-09T10:51:14.069Z,55.27
2023-04-09T10:52:14.051Z,57.52
2023-04-09T10:53:14.046Z,56.24
2023-04-09T10:54:14.037Z,56.07
2023-04-09T10:55:14.033Z,51.72
2023-04-09T10:56:14.039Z,55.59
2023-04-09T10:57:14.014Z,53.66
2023-04-09T10:58:14.116Z,53.98
2023-04-09T10:59:13.996Z,58.17
2023-04-09T11:00:14.008Z,58.01
2023-04-09T11:01:13.975Z,55.75
2023-04-09T11:02:14.063Z,56.07
2023-04-09T11:03:15.095Z,55.91
2023-04-09T11:04:13.967Z,47.70
2023-04-09T11:05:15.680Z,55.43
2023-04-09T11:06:13.936Z,56.24
2023-04-09T11:07:13.939Z,56.72
2023-04-09T11:08:13.942Z,56.72
2023-04-09T11:09:13.913Z,60.59
2023-04-09T11:10:13.924Z,56.07
2023-04-09T11:11:13.933Z,57.36
2023-04-09T11:12:13.913Z,55.91
2023-04-09T11:13:13.907Z,49.15
2023-04-09T11:14:13.881Z,53.98
2023-04-09T11:15:13.889Z,57.36
2023-04-09T11:16:22.862Z,54.14
2023-04-09T11:17:15.589Z,57.04
2023-04-09T11:18:13.858Z,52.37
2023-04-09T11:19:13.840Z,54.46
2023-04-09T11:20:13.855Z,57.20
2023-04-09T11:21:13.827Z,54.46
2023-04-09T11:22:13.825Z,53.66
2023-04-09T11:23:13.816Z,55.59
2023-04-09T11:24:13.817Z,57.69
2023-04-09T11:25:13.790Z,59.30
2023-04-09T11:26:13.801Z,52.05
2023-04-09T11:27:13.792Z,51.88
2023-04-09T11:28:13.754Z,52.69
2023-04-09T11:29:13.758Z,55.11
2023-04-09T11:30:13.751Z,50.92
2023-04-09T11:31:13.807Z,53.33
2023-04-09T11:32:13.768Z,57.69
2023-04-09T11:33:13.716Z,51.08
2023-04-09T11:34:13.718Z,54.46
2023-04-09T11:35:13.694Z,57.04
2023-04-09T11:36:13.729Z,54.79
2023-04-09T11:37:13.708Z,53.33
2023-04-09T11:38:13.726Z,56.88
2023-04-09T11:39:13.677Z,54.30
2023-04-09T11:40:13.693Z,54.95
2023-04-09T11:41:13.671Z,58.81
2023-04-09T11:42:13.678Z,50.92
2023-04-09T11:43:13.653Z,53.50
2023-04-09T11:44:13.632Z,56.24
2023-04-09T11:45:13.609Z,51.24
2023-04-09T11:46:13.614Z,54.30
2023-04-09T11:47:13.623Z,56.56
2023-04-09T11:48:13.626Z,52.69
2023-04-09T11:49:13.624Z,52.53
2023-04-09T11:50:13.600Z,53.98
2023-04-09T11:51:13.606Z,52.05
2023-04-09T11:52:13.564Z,53.01
2023-04-09T11:53:13.557Z,56.56
2023-04-09T11:54:13.555Z,56.24
2023-04-09T11:55:13.573Z,56.24
2023-04-09T11:56:13.525Z,56.88
2023-04-09T11:57:14.211Z,51.88
2023-04-09T11:58:13.569Z,50.27
2023-04-09T11:59:13.518Z,55.59
2023-04-09T12:00:13.500Z,58.49
2023-04-09T12:01:13.484Z,57.36
2023-04-09T12:02:13.543Z,56.56
2023-04-09T12:03:13.963Z,52.85
2023-04-09T12:04:13.637Z,53.17
2023-04-09T12:05:13.601Z,50.92
2023-04-09T12:06:13.516Z,53.98
2023-04-09T12:07:13.450Z,54.30
2023-04-09T12:08:13.464Z,58.17
2023-04-09T12:09:14.078Z,52.21
2023-04-09T12:10:13.444Z,54.79
2023-04-09T12:11:13.441Z,52.85
2023-04-09T12:12:13.452Z,55.27
2023-04-09T12:13:13.412Z,52.37
2023-04-09T12:14:13.417Z,56.07
2023-04-09T12:15:13.396Z,55.27
2023-04-09T12:16:13.435Z,53.01
2023-04-09T12:17:13.373Z,56.24
2023-04-09T12:18:13.364Z,58.81
2023-04-09T12:19:13.390Z,58.65
2023-04-09T12:20:13.352Z,57.04
2023-04-09T12:21:13.358Z,54.95
2023-04-09T12:22:13.329Z,58.97
2023-04-09T12:23:13.343Z,61.07
2023-04-09T12:24:13.315Z,61.23
2023-04-09T12:25:13.331Z,53.98
2023-04-09T12:26:13.305Z,57.52
2023-04-09T12:27:13.288Z,58.33
2023-04-09T12:28:13.282Z,54.30
2023-04-09T12:29:13.274Z,59.62
2023-04-09T12:30:13.261Z,56.56
2023-04-09T12:31:13.261Z,56.72
2023-04-09T12:32:13.310Z,59.78
2023-04-09T12:33:13.267Z,59.94
2023-04-09T12:34:13.238Z,57.20
2023-04-09T12:35:13.223Z,56.40
2023-04-09T12:36:13.234Z,58.97
2023-04-09T12:37:13.229Z,57.69
2023-04-09T12:38:13.202Z,57.04
2023-04-09T12:39:14.200Z,56.24
2023-04-09T12:40:13.190Z,55.43
2023-04-09T12:41:13.182Z,57.85
2023-04-09T12:42:13.169Z,59.30
2023-04-09T12:43:13.172Z,57.85
2023-04-09T12:44:13.176Z,59.14
2023-04-09T12:45:13.147Z,56.72
2023-04-09T12:46:13.200Z,58.01
2023-04-09T12:47:14.129Z,57.85
2023-04-09T12:48:13.141Z,58.17
2023-04-09T12:49:13.108Z,55.27
2023-04-09T12:50:13.120Z,58.81
2023-04-09T12:51:13.126Z,53.33
2023-04-09T12:52:13.084Z,58.01
2023-04-09T12:53:13.084Z,55.59
2023-04-09T12:54:13.105Z,55.43